CheckWX is a tool to help pilots better visualize weather data.  It is not intended as a substitute for an official pre-flight weather briefing.

17:44:00 UTC

CYQZ TAF
Quesnel Airport
Quesnel, Canada
TAF AMD CYQZ 181527Z 1815/1824 15006KT P6SM SCT009 BKN080 TEMPO 1815/1817 5SM -SHRA BR BKN009 OVC080 FM181700 16007KT P6SM SCT080 BKN150 TEMPO 1817/1824 SCT040 BKN080 RMK FCST BASED ON AUTO OBS. NXT FCST BY 181900Z

Aug-18@
15:00 UTC

Aug-18 @ 15:00 UTC

Aug-18@
17:00 UTC

Aug-18 @ 17:00 UTC

TAF AMD CYQZ 181527Z 1815/1824 15006KT P6SM SCT009 BKN080

Expired

Wind
  • 150° at 6 KTS
Cloud Levels
  • Scattered at 900' AGL
  • Broken at 8,000' AGL

Aug-18@
15:00 UTC

Aug-18 @ 15:00 UTC

Aug-18@
17:00 UTC

Aug-18 @ 17:00 UTC

TEMPO 1815/1817 5SM -SHRA BR BKN009 OVC080

Expired

Conditions
Light Rain, Mist
Cloud Levels
  • Broken at 900' AGL
  • Overcast at 8,000' AGL

Aug-18@
17:00 UTC

Aug-18 @ 17:00 UTC

Aug-19@
00:00 UTC

Aug-19 @ 00:00 UTC

FM181700 16007KT P6SM SCT080 BKN150

From

From Standard forecast or significant change

Wind
  • 160° at 7 KTS
Cloud Levels
  • Scattered at 8,000' AGL
  • Broken at 15,000' AGL

Aug-18@
17:00 UTC

Aug-18 @ 17:00 UTC

Aug-19@
00:00 UTC

Aug-19 @ 00:00 UTC

TEMPO 1817/1824 SCT040 BKN080 RMK FCST BASED ON AUTO OBS. NXT FCST BY 181900Z

Temporary

Temporary Changes expected for less than half the time period

Cloud Levels
  • Scattered at 4,000' AGL
  • Broken at 8,000' AGL